sensor_id;sensor_type;location;lat;lon;timestamp;P1;durP1;ratioP1;P2;durP2;ratioP2
72791;SDS011;60907;53.268;8.764;2024-03-06T00:01:29;11.52;;;4.80;;
72791;SDS011;60907;53.268;8.764;2024-03-06T00:03:54;9.40;;;4.77;;
72791;SDS011;60907;53.268;8.764;2024-03-06T00:06:20;12.80;;;5.13;;
72791;SDS011;60907;53.268;8.764;2024-03-06T00:08:45;12.27;;;5.50;;
72791;SDS011;60907;53.268;8.764;2024-03-06T00:11:10;11.03;;;4.60;;
72791;SDS011;60907;53.268;8.764;2024-03-06T00:13:35;12.37;;;4.80;;
72791;SDS011;60907;53.268;8.764;2024-03-06T00:16:01;8.83;;;4.67;;
72791;SDS011;60907;53.268;8.764;2024-03-06T00:18:26;12.50;;;5.30;;
72791;SDS011;60907;53.268;8.764;2024-03-06T00:20:51;9.20;;;4.60;;
72791;SDS011;60907;53.268;8.764;2024-03-06T00:23:17;10.05;;;4.03;;
72791;SDS011;60907;53.268;8.764;2024-03-06T00:25:42;12.73;;;4.87;;
72791;SDS011;60907;53.268;8.764;2024-03-06T00:28:07;11.33;;;4.63;;
72791;SDS011;60907;53.268;8.764;2024-03-06T00:30:33;12.73;;;5.63;;
72791;SDS011;60907;53.268;8.764;2024-03-06T00:32:58;14.67;;;5.10;;
72791;SDS011;60907;53.268;8.764;2024-03-06T00:35:24;11.20;;;5.03;;
72791;SDS011;60907;53.268;8.764;2024-03-06T00:37:49;10.43;;;4.40;;
72791;SDS011;60907;53.268;8.764;2024-03-06T00:40:14;11.30;;;5.47;;
72791;SDS011;60907;53.268;8.764;2024-03-06T00:42:39;12.10;;;5.03;;
72791;SDS011;60907;53.268;8.764;2024-03-06T00:45:06;11.75;;;4.72;;
72791;SDS011;60907;53.268;8.764;2024-03-06T00:47:31;11.82;;;5.30;;
72791;SDS011;60907;53.268;8.764;2024-03-06T00:49:59;9.50;;;4.65;;
72791;SDS011;60907;53.268;8.764;2024-03-06T00:52:24;12.03;;;5.07;;
72791;SDS011;60907;53.268;8.764;2024-03-06T00:54:49;11.40;;;5.20;;
72791;SDS011;60907;53.268;8.764;2024-03-06T00:57:15;10.40;;;5.00;;
72791;SDS011;60907;53.268;8.764;2024-03-06T00:59:40;11.93;;;4.60;;
72791;SDS011;60907;53.268;8.764;2024-03-06T01:02:05;11.20;;;5.20;;
72791;SDS011;60907;53.268;8.764;2024-03-06T01:04:31;14.17;;;5.57;;
72791;SDS011;60907;53.268;8.764;2024-03-06T01:06:56;10.97;;;4.40;;
72791;SDS011;60907;53.268;8.764;2024-03-06T01:09:23;10.38;;;4.93;;
72791;SDS011;60907;53.268;8.764;2024-03-06T01:11:48;11.70;;;5.05;;
72791;SDS011;60907;53.268;8.764;2024-03-06T01:14:14;13.23;;;5.00;;
72791;SDS011;60907;53.268;8.764;2024-03-06T01:16:39;13.70;;;5.37;;
72791;SDS011;60907;53.268;8.764;2024-03-06T01:19:04;10.17;;;5.27;;
72791;SDS011;60907;53.268;8.764;2024-03-06T01:21:29;10.73;;;5.00;;
72791;SDS011;60907;53.268;8.764;2024-03-06T01:23:55;11.98;;;4.57;;
72791;SDS011;60907;53.268;8.764;2024-03-06T01:26:20;12.63;;;5.00;;
72791;SDS011;60907;53.268;8.764;2024-03-06T01:28:46;12.57;;;5.32;;
72791;SDS011;60907;53.268;8.764;2024-03-06T01:31:11;12.60;;;4.97;;
72791;SDS011;60907;53.268;8.764;2024-03-06T01:33:36;10.20;;;4.90;;
72791;SDS011;60907;53.268;8.764;2024-03-06T01:36:02;12.90;;;6.20;;
72791;SDS011;60907;53.268;8.764;2024-03-06T01:38:27;13.37;;;4.97;;
72791;SDS011;60907;53.268;8.764;2024-03-06T01:40:52;12.73;;;5.47;;
72791;SDS011;60907;53.268;8.764;2024-03-06T01:43:21;10.57;;;5.25;;
72791;SDS011;60907;53.268;8.764;2024-03-06T01:45:47;9.45;;;4.65;;
72791;SDS011;60907;53.268;8.764;2024-03-06T01:48:12;8.68;;;4.32;;
72791;SDS011;60907;53.268;8.764;2024-03-06T01:50:39;9.00;;;4.40;;
72791;SDS011;60907;53.268;8.764;2024-03-06T01:53:04;10.38;;;5.40;;
72791;SDS011;60907;53.268;8.764;2024-03-06T01:55:30;10.67;;;5.00;;
72791;SDS011;60907;53.268;8.764;2024-03-06T01:57:56;11.70;;;5.35;;
72791;SDS011;60907;53.268;8.764;2024-03-06T02:00:21;13.05;;;4.72;;
72791;SDS011;60907;53.268;8.764;2024-03-06T02:02:48;12.60;;;5.20;;
72791;SDS011;60907;53.268;8.764;2024-03-06T02:05:13;11.68;;;5.50;;
72791;SDS011;60907;53.268;8.764;2024-03-06T02:07:38;10.00;;;5.50;;
72791;SDS011;60907;53.268;8.764;2024-03-06T02:10:05;12.98;;;5.05;;
72791;SDS011;60907;53.268;8.764;2024-03-06T02:12:32;15.65;;;4.85;;
72791;SDS011;60907;53.268;8.764;2024-03-06T02:14:58;7.00;;;3.40;;
72791;SDS011;60907;53.268;8.764;2024-03-06T02:17:23;10.87;;;4.97;;
72791;SDS011;60907;53.268;8.764;2024-03-06T02:19:50;14.50;;;5.45;;
72791;SDS011;60907;53.268;8.764;2024-03-06T02:22:15;11.90;;;5.30;;
72791;SDS011;60907;53.268;8.764;2024-03-06T02:24:44;9.73;;;4.68;;
72791;SDS011;60907;53.268;8.764;2024-03-06T02:27:10;10.77;;;4.90;;
72791;SDS011;60907;53.268;8.764;2024-03-06T02:29:35;12.20;;;4.87;;
72791;SDS011;60907;53.268;8.764;2024-03-06T02:32:00;8.77;;;3.97;;
72791;SDS011;60907;53.268;8.764;2024-03-06T02:34:28;8.85;;;4.25;;
72791;SDS011;60907;53.268;8.764;2024-03-06T02:36:57;7.22;;;3.63;;
72791;SDS011;60907;53.268;8.764;2024-03-06T02:39:22;11.90;;;5.17;;
72791;SDS011;60907;53.268;8.764;2024-03-06T02:41:47;10.55;;;4.60;;
72791;SDS011;60907;53.268;8.764;2024-03-06T02:44:14;8.60;;;4.65;;
72791;SDS011;60907;53.268;8.764;2024-03-06T02:46:39;11.65;;;4.95;;
72791;SDS011;60907;53.268;8.764;2024-03-06T02:49:04;8.15;;;4.22;;
72791;SDS011;60907;53.268;8.764;2024-03-06T02:51:31;11.48;;;4.50;;
72791;SDS011;60907;53.268;8.764;2024-03-06T02:53:56;10.40;;;4.40;;
72791;SDS011;60907;53.268;8.764;2024-03-06T02:56:21;9.53;;;4.03;;
72791;SDS011;60907;53.268;8.764;2024-03-06T02:58:46;10.33;;;4.73;;
72791;SDS011;60907;53.268;8.764;2024-03-06T03:01:13;8.97;;;4.40;;
72791;SDS011;60907;53.268;8.764;2024-03-06T03:03:41;9.05;;;3.60;;
72791;SDS011;60907;53.268;8.764;2024-03-06T03:06:07;12.07;;;5.05;;
72791;SDS011;60907;53.268;8.764;2024-03-06T03:08:33;12.73;;;5.03;;
72791;SDS011;60907;53.268;8.764;2024-03-06T03:10:58;9.40;;;4.17;;
72791;SDS011;60907;53.268;8.764;2024-03-06T03:13:23;11.03;;;4.63;;
72791;SDS011;60907;53.268;8.764;2024-03-06T03:15:49;11.90;;;5.15;;
72791;SDS011;60907;53.268;8.764;2024-03-06T03:18:14;10.85;;;4.70;;
72791;SDS011;60907;53.268;8.764;2024-03-06T03:20:40;11.48;;;4.68;;
72791;SDS011;60907;53.268;8.764;2024-03-06T03:23:05;15.47;;;5.63;;
72791;SDS011;60907;53.268;8.764;2024-03-06T03:25:36;11.52;;;4.55;;
72791;SDS011;60907;53.268;8.764;2024-03-06T03:28:02;14.13;;;5.50;;
72791;SDS011;60907;53.268;8.764;2024-03-06T03:30:27;10.57;;;4.57;;
72791;SDS011;60907;53.268;8.764;2024-03-06T03:32:52;9.80;;;4.57;;
72791;SDS011;60907;53.268;8.764;2024-03-06T03:35:17;10.20;;;4.60;;
72791;SDS011;60907;53.268;8.764;2024-03-06T03:37:45;11.50;;;5.25;;
72791;SDS011;60907;53.268;8.764;2024-03-06T03:40:11;11.43;;;5.37;;
72791;SDS011;60907;53.268;8.764;2024-03-06T03:42:37;12.13;;;4.97;;
72791;SDS011;60907;53.268;8.764;2024-03-06T03:45:02;13.07;;;4.10;;
72791;SDS011;60907;53.268;8.764;2024-03-06T03:47:28;11.93;;;5.15;;
72791;SDS011;60907;53.268;8.764;2024-03-06T03:49:53;12.13;;;6.07;;
72791;SDS011;60907;53.268;8.764;2024-03-06T03:52:18;12.10;;;4.43;;
72791;SDS011;60907;53.268;8.764;2024-03-06T03:54:44;11.87;;;4.43;;
72791;SDS011;60907;53.268;8.764;2024-03-06T03:57:09;10.27;;;3.63;;
72791;SDS011;60907;53.268;8.764;2024-03-06T03:59:34;12.05;;;5.60;;
72791;SDS011;60907;53.268;8.764;2024-03-06T04:02:02;10.38;;;4.68;;
72791;SDS011;60907;53.268;8.764;2024-03-06T04:04:27;9.77;;;3.73;;
72791;SDS011;60907;53.268;8.764;2024-03-06T04:06:54;11.20;;;4.45;;
72791;SDS011;60907;53.268;8.764;2024-03-06T04:09:19;1.97;;;1.23;;
72791;SDS011;60907;53.268;8.764;2024-03-06T04:11:44;9.87;;;4.27;;
72791;SDS011;60907;53.268;8.764;2024-03-06T04:14:09;10.37;;;5.37;;
72791;SDS011;60907;53.268;8.764;2024-03-06T04:16:35;12.87;;;5.33;;
72791;SDS011;60907;53.268;8.764;2024-03-06T04:19:00;10.50;;;4.43;;
72791;SDS011;60907;53.268;8.764;2024-03-06T04:21:26;10.50;;;4.73;;
72791;SDS011;60907;53.268;8.764;2024-03-06T04:23:51;12.75;;;5.15;;
72791;SDS011;60907;53.268;8.764;2024-03-06T04:26:16;14.83;;;5.63;;
72791;SDS011;60907;53.268;8.764;2024-03-06T04:28:42;11.68;;;4.78;;
72791;SDS011;60907;53.268;8.764;2024-03-06T04:31:08;10.93;;;5.32;;
72791;SDS011;60907;53.268;8.764;2024-03-06T04:33:34;8.73;;;4.83;;
72791;SDS011;60907;53.268;8.764;2024-03-06T04:36:03;13.88;;;5.78;;
72791;SDS011;60907;53.268;8.764;2024-03-06T04:38:30;9.63;;;4.28;;
72791;SDS011;60907;53.268;8.764;2024-03-06T04:40:55;13.27;;;5.40;;
72791;SDS011;60907;53.268;8.764;2024-03-06T04:43:21;11.67;;;5.67;;
72791;SDS011;60907;53.268;8.764;2024-03-06T04:45:46;10.20;;;3.97;;
72791;SDS011;60907;53.268;8.764;2024-03-06T04:48:11;15.37;;;5.17;;
72791;SDS011;60907;53.268;8.764;2024-03-06T04:50:37;13.87;;;5.53;;
72791;SDS011;60907;53.268;8.764;2024-03-06T04:53:02;10.25;;;5.18;;
72791;SDS011;60907;53.268;8.764;2024-03-06T04:55:28;11.43;;;6.13;;
72791;SDS011;60907;53.268;8.764;2024-03-06T04:57:53;8.47;;;3.53;;
72791;SDS011;60907;53.268;8.764;2024-03-06T05:00:18;9.85;;;4.57;;
72791;SDS011;60907;53.268;8.764;2024-03-06T05:02:44;9.30;;;4.77;;
72791;SDS011;60907;53.268;8.764;2024-03-06T05:05:09;10.93;;;4.93;;
72791;SDS011;60907;53.268;8.764;2024-03-06T05:07:34;13.33;;;4.50;;
72791;SDS011;60907;53.268;8.764;2024-03-06T05:10:00;18.07;;;4.20;;
72791;SDS011;60907;53.268;8.764;2024-03-06T05:12:26;9.32;;;4.47;;
72791;SDS011;60907;53.268;8.764;2024-03-06T05:14:51;12.63;;;5.15;;
72791;SDS011;60907;53.268;8.764;2024-03-06T05:17:17;11.77;;;4.95;;
72791;SDS011;60907;53.268;8.764;2024-03-06T05:19:42;13.35;;;4.85;;
72791;SDS011;60907;53.268;8.764;2024-03-06T05:22:08;11.85;;;5.07;;
72791;SDS011;60907;53.268;8.764;2024-03-06T05:24:33;16.00;;;5.27;;
72791;SDS011;60907;53.268;8.764;2024-03-06T05:26:58;9.67;;;4.37;;
72791;SDS011;60907;53.268;8.764;2024-03-06T05:29:24;9.95;;;3.88;;
72791;SDS011;60907;53.268;8.764;2024-03-06T05:31:49;11.67;;;5.10;;
72791;SDS011;60907;53.268;8.764;2024-03-06T05:34:14;11.43;;;4.40;;
72791;SDS011;60907;53.268;8.764;2024-03-06T05:36:39;11.17;;;4.53;;
72791;SDS011;60907;53.268;8.764;2024-03-06T05:39:05;13.45;;;5.07;;
72791;SDS011;60907;53.268;8.764;2024-03-06T05:41:32;9.18;;;4.13;;
72791;SDS011;60907;53.268;8.764;2024-03-06T05:43:57;12.75;;;5.05;;
72791;SDS011;60907;53.268;8.764;2024-03-06T05:46:23;11.60;;;5.17;;
72791;SDS011;60907;53.268;8.764;2024-03-06T05:48:48;5.53;;;2.75;;
72791;SDS011;60907;53.268;8.764;2024-03-06T05:51:15;10.75;;;5.22;;
72791;SDS011;60907;53.268;8.764;2024-03-06T05:53:40;9.03;;;3.97;;
72791;SDS011;60907;53.268;8.764;2024-03-06T05:56:07;11.15;;;4.93;;
72791;SDS011;60907;53.268;8.764;2024-03-06T05:58:32;9.30;;;4.88;;
72791;SDS011;60907;53.268;8.764;2024-03-06T06:00:59;7.63;;;4.57;;
72791;SDS011;60907;53.268;8.764;2024-03-06T06:03:24;9.27;;;4.20;;
72791;SDS011;60907;53.268;8.764;2024-03-06T06:05:50;13.00;;;5.63;;
72791;SDS011;60907;53.268;8.764;2024-03-06T06:08:15;10.37;;;5.17;;
72791;SDS011;60907;53.268;8.764;2024-03-06T06:10:40;13.80;;;5.13;;
72791;SDS011;60907;53.268;8.764;2024-03-06T06:13:06;11.17;;;5.17;;
72791;SDS011;60907;53.268;8.764;2024-03-06T06:15:31;10.77;;;4.73;;
72791;SDS011;60907;53.268;8.764;2024-03-06T06:17:56;11.97;;;5.50;;
72791;SDS011;60907;53.268;8.764;2024-03-06T06:20:22;12.87;;;5.40;;
72791;SDS011;60907;53.268;8.764;2024-03-06T06:22:47;12.47;;;5.00;;
72791;SDS011;60907;53.268;8.764;2024-03-06T06:25:12;8.73;;;4.00;;
72791;SDS011;60907;53.268;8.764;2024-03-06T06:27:38;12.60;;;5.67;;
72791;SDS011;60907;53.268;8.764;2024-03-06T06:30:04;10.43;;;5.70;;
72791;SDS011;60907;53.268;8.764;2024-03-06T06:32:29;10.05;;;4.88;;
72791;SDS011;60907;53.268;8.764;2024-03-06T06:34:55;12.93;;;6.20;;
72791;SDS011;60907;53.268;8.764;2024-03-06T06:37:21;10.20;;;4.93;;
72791;SDS011;60907;53.268;8.764;2024-03-06T06:39:46;14.20;;;5.50;;
72791;SDS011;60907;53.268;8.764;2024-03-06T06:42:13;10.68;;;5.07;;
72791;SDS011;60907;53.268;8.764;2024-03-06T06:44:38;12.70;;;5.50;;
72791;SDS011;60907;53.268;8.764;2024-03-06T06:47:03;11.47;;;5.47;;
72791;SDS011;60907;53.268;8.764;2024-03-06T06:49:29;9.77;;;5.53;;
72791;SDS011;60907;53.268;8.764;2024-03-06T06:51:54;12.43;;;5.17;;
72791;SDS011;60907;53.268;8.764;2024-03-06T06:54:19;9.63;;;5.10;;
72791;SDS011;60907;53.268;8.764;2024-03-06T06:56:44;8.33;;;4.33;;
72791;SDS011;60907;53.268;8.764;2024-03-06T06:59:10;12.37;;;5.37;;
72791;SDS011;60907;53.268;8.764;2024-03-06T07:01:35;11.37;;;4.57;;
72791;SDS011;60907;53.268;8.764;2024-03-06T07:04:00;13.32;;;6.30;;
72791;SDS011;60907;53.268;8.764;2024-03-06T07:06:27;10.88;;;5.15;;
72791;SDS011;60907;53.268;8.764;2024-03-06T07:08:52;11.27;;;4.37;;
72791;SDS011;60907;53.268;8.764;2024-03-06T07:11:17;6.50;;;3.97;;
72791;SDS011;60907;53.268;8.764;2024-03-06T07:13:43;10.27;;;4.40;;
72791;SDS011;60907;53.268;8.764;2024-03-06T07:16:09;12.50;;;4.13;;
72791;SDS011;60907;53.268;8.764;2024-03-06T07:18:34;14.95;;;5.45;;
72791;SDS011;60907;53.268;8.764;2024-03-06T07:21:00;10.98;;;4.45;;
72791;SDS011;60907;53.268;8.764;2024-03-06T07:23:25;9.67;;;4.27;;
72791;SDS011;60907;53.268;8.764;2024-03-06T07:25:50;12.23;;;4.77;;
72791;SDS011;60907;53.268;8.764;2024-03-06T07:28:15;13.30;;;5.20;;
72791;SDS011;60907;53.268;8.764;2024-03-06T07:30:41;11.67;;;4.67;;
72791;SDS011;60907;53.268;8.764;2024-03-06T07:33:06;12.63;;;5.37;;
72791;SDS011;60907;53.268;8.764;2024-03-06T07:35:32;15.25;;;6.28;;
72791;SDS011;60907;53.268;8.764;2024-03-06T07:37:57;11.90;;;5.60;;
72791;SDS011;60907;53.268;8.764;2024-03-06T07:40:23;12.40;;;5.45;;
72791;SDS011;60907;53.268;8.764;2024-03-06T07:42:48;10.10;;;5.35;;
72791;SDS011;60907;53.268;8.764;2024-03-06T07:45:14;13.93;;;5.50;;
72791;SDS011;60907;53.268;8.764;2024-03-06T07:47:39;11.23;;;5.60;;
72791;SDS011;60907;53.268;8.764;2024-03-06T07:50:06;13.50;;;5.00;;
72791;SDS011;60907;53.268;8.764;2024-03-06T07:52:32;11.82;;;4.70;;
72791;SDS011;60907;53.268;8.764;2024-03-06T07:54:57;9.87;;;4.47;;
72791;SDS011;60907;53.268;8.764;2024-03-06T07:57:23;13.32;;;5.18;;
72791;SDS011;60907;53.268;8.764;2024-03-06T07:59:48;13.80;;;5.50;;
72791;SDS011;60907;53.268;8.764;2024-03-06T08:02:14;10.63;;;4.95;;
72791;SDS011;60907;53.268;8.764;2024-03-06T08:04:39;14.10;;;5.53;;
72791;SDS011;60907;53.268;8.764;2024-03-06T08:07:05;12.17;;;4.80;;
72791;SDS011;60907;53.268;8.764;2024-03-06T08:09:30;8.30;;;4.67;;
72791;SDS011;60907;53.268;8.764;2024-03-06T08:11:56;9.43;;;4.22;;
72791;SDS011;60907;53.268;8.764;2024-03-06T08:14:21;10.00;;;4.67;;
72791;SDS011;60907;53.268;8.764;2024-03-06T08:16:47;11.07;;;5.37;;
72791;SDS011;60907;53.268;8.764;2024-03-06T08:19:12;12.30;;;5.33;;
72791;SDS011;60907;53.268;8.764;2024-03-06T08:21:38;11.07;;;5.10;;
72791;SDS011;60907;53.268;8.764;2024-03-06T08:24:03;11.48;;;5.07;;
72791;SDS011;60907;53.268;8.764;2024-03-06T08:26:28;12.83;;;5.13;;
72791;SDS011;60907;53.268;8.764;2024-03-06T08:28:53;10.63;;;5.37;;
72791;SDS011;60907;53.268;8.764;2024-03-06T08:31:19;14.45;;;5.35;;
72791;SDS011;60907;53.268;8.764;2024-03-06T08:33:46;9.70;;;4.95;;
72791;SDS011;60907;53.268;8.764;2024-03-06T08:36:11;10.03;;;5.10;;
72791;SDS011;60907;53.268;8.764;2024-03-06T08:38:38;13.40;;;5.57;;
72791;SDS011;60907;53.268;8.764;2024-03-06T08:41:05;11.55;;;5.60;;
72791;SDS011;60907;53.268;8.764;2024-03-06T08:43:31;9.95;;;5.05;;
72791;SDS011;60907;53.268;8.764;2024-03-06T08:45:56;12.30;;;5.13;;
72791;SDS011;60907;53.268;8.764;2024-03-06T08:48:22;9.33;;;4.53;;
72791;SDS011;60907;53.268;8.764;2024-03-06T08:50:47;14.77;;;5.40;;
72791;SDS011;60907;53.268;8.764;2024-03-06T08:53:12;10.97;;;5.23;;
72791;SDS011;60907;53.268;8.764;2024-03-06T08:55:39;9.00;;;4.70;;
72791;SDS011;60907;53.268;8.764;2024-03-06T08:58:04;15.43;;;5.30;;
72791;SDS011;60907;53.268;8.764;2024-03-06T09:00:29;11.20;;;4.60;;
72791;SDS011;60907;53.268;8.764;2024-03-06T09:02:55;12.00;;;5.60;;
72791;SDS011;60907;53.268;8.764;2024-03-06T09:05:20;14.80;;;6.37;;
72791;SDS011;60907;53.268;8.764;2024-03-06T09:07:47;13.75;;;5.57;;
72791;SDS011;60907;53.268;8.764;2024-03-06T09:10:12;11.45;;;5.53;;
72791;SDS011;60907;53.268;8.764;2024-03-06T09:12:38;11.35;;;5.15;;
72791;SDS011;60907;53.268;8.764;2024-03-06T09:15:03;12.75;;;5.28;;
72791;SDS011;60907;53.268;8.764;2024-03-06T09:17:29;13.98;;;6.05;;
72791;SDS011;60907;53.268;8.764;2024-03-06T09:19:54;10.40;;;5.68;;
72791;SDS011;60907;53.268;8.764;2024-03-06T09:22:20;12.20;;;5.43;;
72791;SDS011;60907;53.268;8.764;2024-03-06T09:24:45;8.57;;;3.90;;
72791;SDS011;60907;53.268;8.764;2024-03-06T09:27:10;12.50;;;5.28;;
72791;SDS011;60907;53.268;8.764;2024-03-06T09:29:36;9.77;;;4.53;;
72791;SDS011;60907;53.268;8.764;2024-03-06T09:32:01;12.80;;;5.60;;
72791;SDS011;60907;53.268;8.764;2024-03-06T09:34:26;10.77;;;5.37;;
72791;SDS011;60907;53.268;8.764;2024-03-06T09:36:51;13.83;;;5.47;;
72791;SDS011;60907;53.268;8.764;2024-03-06T09:39:17;7.20;;;3.60;;
72791;SDS011;60907;53.268;8.764;2024-03-06T09:41:54;8.52;;;4.55;;
72791;SDS011;60907;53.268;8.764;2024-03-06T09:44:21;10.07;;;5.15;;
72791;SDS011;60907;53.268;8.764;2024-03-06T09:46:47;11.27;;;5.60;;
72791;SDS011;60907;53.268;8.764;2024-03-06T09:49:17;11.65;;;5.35;;
72791;SDS011;60907;53.268;8.764;2024-03-06T09:51:43;11.43;;;5.50;;
72791;SDS011;60907;53.268;8.764;2024-03-06T09:54:10;11.20;;;5.45;;
72791;SDS011;60907;53.268;8.764;2024-03-06T09:56:36;13.00;;;5.63;;
72791;SDS011;60907;53.268;8.764;2024-03-06T09:59:01;13.57;;;6.37;;
72791;SDS011;60907;53.268;8.764;2024-03-06T10:01:28;13.00;;;5.10;;
72791;SDS011;60907;53.268;8.764;2024-03-06T10:03:54;12.48;;;6.05;;
72791;SDS011;60907;53.268;8.764;2024-03-06T10:06:19;12.30;;;5.23;;
72791;SDS011;60907;53.268;8.764;2024-03-06T10:08:45;8.88;;;4.72;;
72791;SDS011;60907;53.268;8.764;2024-03-06T10:11:11;9.88;;;5.47;;
72791;SDS011;60907;53.268;8.764;2024-03-06T10:13:37;7.50;;;3.58;;
72791;SDS011;60907;53.268;8.764;2024-03-06T10:16:02;14.40;;;6.40;;
72791;SDS011;60907;53.268;8.764;2024-03-06T10:18:28;8.35;;;4.43;;
72791;SDS011;60907;53.268;8.764;2024-03-06T10:20:54;10.98;;;4.97;;
72791;SDS011;60907;53.268;8.764;2024-03-06T10:23:19;11.07;;;6.22;;
72791;SDS011;60907;53.268;8.764;2024-03-06T10:25:46;10.67;;;5.03;;
72791;SDS011;60907;53.268;8.764;2024-03-06T10:28:11;8.82;;;4.20;;
72791;SDS011;60907;53.268;8.764;2024-03-06T10:30:38;9.57;;;4.38;;
72791;SDS011;60907;53.268;8.764;2024-03-06T10:33:07;13.48;;;5.82;;
72791;SDS011;60907;53.268;8.764;2024-03-06T10:35:32;9.65;;;5.20;;
72791;SDS011;60907;53.268;8.764;2024-03-06T10:38:00;12.85;;;6.22;;
72791;SDS011;60907;53.268;8.764;2024-03-06T10:40:25;14.52;;;5.95;;
72791;SDS011;60907;53.268;8.764;2024-03-06T10:42:54;11.60;;;4.97;;
72791;SDS011;60907;53.268;8.764;2024-03-06T10:45:19;8.32;;;4.72;;
72791;SDS011;60907;53.268;8.764;2024-03-06T10:50:14;13.70;;;6.03;;
72791;SDS011;60907;53.268;8.764;2024-03-06T10:52:39;11.80;;;6.05;;
72791;SDS011;60907;53.268;8.764;2024-03-06T10:55:04;12.27;;;6.40;;
72791;SDS011;60907;53.268;8.764;2024-03-06T10:57:31;11.98;;;5.53;;
72791;SDS011;60907;53.268;8.764;2024-03-06T10:59:57;13.20;;;5.78;;
72791;SDS011;60907;53.268;8.764;2024-03-06T11:02:25;11.40;;;6.65;;
72791;SDS011;60907;53.268;8.764;2024-03-06T11:04:52;11.02;;;4.57;;
72791;SDS011;60907;53.268;8.764;2024-03-06T11:07:18;13.57;;;5.53;;
72791;SDS011;60907;53.268;8.764;2024-03-06T11:09:43;9.68;;;4.65;;
72791;SDS011;60907;53.268;8.764;2024-03-06T11:12:09;11.70;;;6.10;;
72791;SDS011;60907;53.268;8.764;2024-03-06T11:14:38;10.38;;;6.00;;
72791;SDS011;60907;53.268;8.764;2024-03-06T11:17:04;13.45;;;6.45;;
72791;SDS011;60907;53.268;8.764;2024-03-06T11:19:30;12.13;;;5.88;;
72791;SDS011;60907;53.268;8.764;2024-03-06T11:21:56;9.13;;;5.03;;
72791;SDS011;60907;53.268;8.764;2024-03-06T11:24:23;13.00;;;6.72;;
72791;SDS011;60907;53.268;8.764;2024-03-06T11:26:55;15.68;;;7.03;;
72791;SDS011;60907;53.268;8.764;2024-03-06T11:29:22;14.23;;;6.75;;
72791;SDS011;60907;53.268;8.764;2024-03-06T11:32:06;14.82;;;6.13;;
72791;SDS011;60907;53.268;8.764;2024-03-06T11:34:33;12.77;;;7.13;;
72791;SDS011;60907;53.268;8.764;2024-03-06T11:36:58;12.45;;;6.22;;
72791;SDS011;60907;53.268;8.764;2024-03-06T11:39:24;14.23;;;6.07;;
72791;SDS011;60907;53.268;8.764;2024-03-06T11:41:50;14.13;;;7.55;;
72791;SDS011;60907;53.268;8.764;2024-03-06T11:44:16;14.25;;;7.00;;
72791;SDS011;60907;53.268;8.764;2024-03-06T11:46:45;14.55;;;7.07;;
72791;SDS011;60907;53.268;8.764;2024-03-06T11:49:20;16.52;;;7.15;;
72791;SDS011;60907;53.268;8.764;2024-03-06T11:51:46;15.30;;;6.53;;
72791;SDS011;60907;53.268;8.764;2024-03-06T11:54:11;11.60;;;6.22;;
72791;SDS011;60907;53.268;8.764;2024-03-06T11:56:41;14.93;;;7.22;;
72791;SDS011;60907;53.268;8.764;2024-03-06T11:59:06;16.10;;;6.65;;
72791;SDS011;60907;53.268;8.764;2024-03-06T12:01:35;17.67;;;7.65;;
72791;SDS011;60907;53.268;8.764;2024-03-06T12:04:01;13.95;;;6.85;;
72791;SDS011;60907;53.268;8.764;2024-03-06T12:06:27;9.17;;;5.07;;
72791;SDS011;60907;53.268;8.764;2024-03-06T12:08:53;15.90;;;7.47;;
72791;SDS011;60907;53.268;8.764;2024-03-06T12:11:18;11.30;;;5.88;;
72791;SDS011;60907;53.268;8.764;2024-03-06T12:13:43;12.98;;;6.72;;
72791;SDS011;60907;53.268;8.764;2024-03-06T12:16:10;14.70;;;6.90;;
72791;SDS011;60907;53.268;8.764;2024-03-06T12:18:36;11.02;;;5.55;;
72791;SDS011;60907;53.268;8.764;2024-03-06T12:21:01;12.45;;;5.80;;
72791;SDS011;60907;53.268;8.764;2024-03-06T12:23:27;14.65;;;7.40;;
72791;SDS011;60907;53.268;8.764;2024-03-06T12:26:03;16.70;;;7.03;;
72791;SDS011;60907;53.268;8.764;2024-03-06T12:28:28;15.98;;;6.97;;
72791;SDS011;60907;53.268;8.764;2024-03-06T12:30:53;16.15;;;7.50;;
72791;SDS011;60907;53.268;8.764;2024-03-06T12:33:19;15.17;;;6.43;;
72791;SDS011;60907;53.268;8.764;2024-03-06T12:35:45;11.27;;;5.55;;
72791;SDS011;60907;53.268;8.764;2024-03-06T12:38:14;15.82;;;7.15;;
72791;SDS011;60907;53.268;8.764;2024-03-06T12:40:40;13.45;;;7.10;;
72791;SDS011;60907;53.268;8.764;2024-03-06T12:43:05;15.95;;;6.90;;
72791;SDS011;60907;53.268;8.764;2024-03-06T12:45:30;11.80;;;5.57;;
72791;SDS011;60907;53.268;8.764;2024-03-06T12:47:56;16.00;;;7.67;;
72791;SDS011;60907;53.268;8.764;2024-03-06T12:50:21;14.70;;;7.60;;
72791;SDS011;60907;53.268;8.764;2024-03-06T12:52:47;17.33;;;7.00;;
72791;SDS011;60907;53.268;8.764;2024-03-06T12:55:12;15.53;;;6.57;;
72791;SDS011;60907;53.268;8.764;2024-03-06T12:57:38;13.95;;;7.80;;
72791;SDS011;60907;53.268;8.764;2024-03-06T13:00:04;12.70;;;6.43;;
72791;SDS011;60907;53.268;8.764;2024-03-06T13:02:32;17.60;;;7.80;;
72791;SDS011;60907;53.268;8.764;2024-03-06T13:04:57;11.27;;;6.37;;
72791;SDS011;60907;53.268;8.764;2024-03-06T13:07:22;14.80;;;7.90;;
72791;SDS011;60907;53.268;8.764;2024-03-06T13:09:47;15.40;;;7.77;;
72791;SDS011;60907;53.268;8.764;2024-03-06T13:12:13;17.27;;;7.60;;
72791;SDS011;60907;53.268;8.764;2024-03-06T13:14:39;16.37;;;7.90;;
72791;SDS011;60907;53.268;8.764;2024-03-06T13:17:04;14.73;;;7.50;;
72791;SDS011;60907;53.268;8.764;2024-03-06T13:19:31;16.42;;;8.32;;
72791;SDS011;60907;53.268;8.764;2024-03-06T13:21:56;16.20;;;8.13;;
72791;SDS011;60907;53.268;8.764;2024-03-06T13:24:21;16.27;;;8.20;;
72791;SDS011;60907;53.268;8.764;2024-03-06T13:26:47;13.63;;;6.05;;
72791;SDS011;60907;53.268;8.764;2024-03-06T13:29:13;14.23;;;6.33;;
72791;SDS011;60907;53.268;8.764;2024-03-06T13:31:38;17.15;;;7.90;;
72791;SDS011;60907;53.268;8.764;2024-03-06T13:34:04;14.47;;;7.40;;
72791;SDS011;60907;53.268;8.764;2024-03-06T13:36:29;15.83;;;7.60;;
72791;SDS011;60907;53.268;8.764;2024-03-06T13:38:54;14.70;;;7.63;;
72791;SDS011;60907;53.268;8.764;2024-03-06T13:41:20;17.88;;;7.65;;
72791;SDS011;60907;53.268;8.764;2024-03-06T13:43:45;16.40;;;7.37;;
72791;SDS011;60907;53.268;8.764;2024-03-06T13:46:11;13.40;;;6.93;;
72791;SDS011;60907;53.268;8.764;2024-03-06T13:48:36;17.03;;;8.10;;
72791;SDS011;60907;53.268;8.764;2024-03-06T13:51:02;14.75;;;6.72;;
72791;SDS011;60907;53.268;8.764;2024-03-06T13:53:27;14.30;;;7.33;;
72791;SDS011;60907;53.268;8.764;2024-03-06T13:55:52;16.27;;;7.27;;
72791;SDS011;60907;53.268;8.764;2024-03-06T13:58:18;15.30;;;6.63;;
72791;SDS011;60907;53.268;8.764;2024-03-06T14:00:43;15.03;;;7.33;;
72791;SDS011;60907;53.268;8.764;2024-03-06T14:03:09;14.20;;;6.95;;
72791;SDS011;60907;53.268;8.764;2024-03-06T14:05:37;14.30;;;6.75;;
72791;SDS011;60907;53.268;8.764;2024-03-06T14:08:02;13.30;;;7.33;;
72791;SDS011;60907;53.268;8.764;2024-03-06T14:10:27;18.23;;;7.77;;
72791;SDS011;60907;53.268;8.764;2024-03-06T14:12:52;14.67;;;6.80;;
72791;SDS011;60907;53.268;8.764;2024-03-06T14:15:20;14.10;;;6.88;;
72791;SDS011;60907;53.268;8.764;2024-03-06T14:17:45;16.50;;;8.43;;
72791;SDS011;60907;53.268;8.764;2024-03-06T14:20:11;12.40;;;7.22;;
72791;SDS011;60907;53.268;8.764;2024-03-06T14:22:40;14.88;;;7.15;;
72791;SDS011;60907;53.268;8.764;2024-03-06T14:25:07;14.30;;;7.10;;
72791;SDS011;60907;53.268;8.764;2024-03-06T14:27:33;15.90;;;6.90;;
72791;SDS011;60907;53.268;8.764;2024-03-06T14:32:27;13.48;;;6.90;;